Time;durP1;ratioP1;P1;durP2;ratioP2;P2;SDS_P1;SDS_P2;PMS_P1;PMS_P2;Temp;Humidity;BMP_temperature;BMP_pressure;BME280_temperature;BME280_humidity;BME280_pressure;Samples;Min_cycle;Max_cycle;Signal;HPM_P1;HPM_P2
2022/03/17 00:01:46;;;;;;;;;;;7.00;88.30;;;;;;5070933;28;19991;-74
2022/03/17 00:04:13;;;;;;;;;;;6.90;89.40;;;;;;5069368;28;19924;-78
2022/03/17 00:06:41;;;;;;;;;;;6.90;89.60;;;;;;5057776;28;20373;-77
2022/03/17 00:09:08;;;;;;;;;;;6.90;89.30;;;;;;5062855;28;20380;-75
2022/03/17 00:11:34;;;;;;;;;;;6.90;89.10;;;;;;5072626;28;19932;-77
2022/03/17 00:14:04;;;;;;;;;;;6.90;88.30;;;;;;5063671;28;19956;-75
2022/03/17 00:16:32;;;;;;;;;;;6.80;87.90;;;;;;5055745;28;19925;-78
2022/03/17 00:19:07;;;;;;;;;;;6.80;88.10;;;;;;5072201;28;19929;-78
2022/03/17 00:21:35;;;;;;;;;;;6.80;88.20;;;;;;5070735;28;19967;-77
2022/03/17 00:24:03;;;;;;;;;;;6.80;88.30;;;;;;5074994;28;19993;-78
2022/03/17 00:26:29;;;;;;;;;;;6.90;88.40;;;;;;5060065;28;20381;-76
2022/03/17 00:28:56;;;;;;;;;;;6.90;88.20;;;;;;5069406;28;20397;-76
2022/03/17 00:31:23;;;;;;;;;;;6.90;88.70;;;;;;5054004;28;19925;-77
2022/03/17 00:33:50;;;;;;;;;;;6.90;88.60;;;;;;5072352;28;19963;-77
2022/03/17 00:36:17;;;;;;;;;;;6.90;88.90;;;;;;5060149;28;19925;-77
2022/03/17 00:38:43;;;;;;;;;;;6.90;89.10;;;;;;5066313;28;19936;-77
2022/03/17 00:41:11;;;;;;;;;;;7.00;89.10;;;;;;5079694;28;19947;-75
2022/03/17 00:43:38;;;;;;;;;;;7.00;89.40;;;;;;5085033;28;19931;-77
2022/03/17 00:46:08;;;;;;;;;;;7.00;89.70;;;;;;5073976;28;19930;-76
2022/03/17 00:48:35;;;;;;;;;;;7.10;90.10;;;;;;5066517;28;19982;-77
2022/03/17 00:51:02;;;;;;;;;;;7.20;90.40;;;;;;5066574;28;19971;-78
2022/03/17 00:53:28;;;;;;;;;;;7.20;90.50;;;;;;5074566;28;19950;-77
2022/03/17 00:55:55;;;;;;;;;;;7.30;90.80;;;;;;5078484;28;19971;-77
2022/03/17 00:58:22;;;;;;;;;;;7.30;91.40;;;;;;5070438;28;19961;-78
2022/03/17 01:00:49;;;;;;;;;;;7.40;91.70;;;;;;5058399;28;20016;-77
2022/03/17 01:03:16;;;;;;;;;;;7.40;91.60;;;;;;5068999;28;19929;-78
2022/03/17 01:05:43;;;;;;;;;;;7.40;91.40;;;;;;5077034;28;19935;-74
2022/03/17 01:08:10;;;;;;;;;;;7.40;91.30;;;;;;5068991;28;19928;-75
2022/03/17 01:10:38;;;;;;;;;;;7.50;91.10;;;;;;5073657;28;19928;-79
2022/03/17 01:13:05;;;;;;;;;;;7.50;91.00;;;;;;5063509;28;19933;-77
2022/03/17 01:15:32;;;;;;;;;;;7.50;90.80;;;;;;5067074;28;20451;-78
2022/03/17 01:17:59;;;;;;;;;;;7.60;91.00;;;;;;5073374;28;20384;-77
2022/03/17 01:20:26;;;;;;;;;;;7.60;90.90;;;;;;5072942;28;19933;-77
2022/03/17 01:22:52;;;;;;;;;;;7.60;91.70;;;;;;5066335;28;19924;-78
2022/03/17 01:25:19;;;;;;;;;;;7.60;91.60;;;;;;5061626;28;19924;-78
2022/03/17 01:27:46;;;;;;;;;;;7.50;91.50;;;;;;5073433;28;19932;-78
2022/03/17 01:30:13;;;;;;;;;;;7.50;91.70;;;;;;5072933;28;19925;-78
2022/03/17 01:32:40;;;;;;;;;;;7.50;91.70;;;;;;5069435;28;19924;-75
2022/03/17 01:35:08;;;;;;;;;;;7.50;91.60;;;;;;5073727;28;19963;-76
2022/03/17 01:37:35;;;;;;;;;;;7.50;91.50;;;;;;5080169;28;20269;-79
2022/03/17 01:40:04;;;;;;;;;;;7.50;91.70;;;;;;5074463;28;20305;-76
2022/03/17 01:42:31;;;;;;;;;;;7.50;91.90;;;;;;5065331;28;19951;-76
2022/03/17 01:44:57;;;;;;;;;;;7.50;91.80;;;;;;5065555;28;19974;-75
2022/03/17 01:47:27;;;;;;;;;;;7.50;91.60;;;;;;5081342;28;19925;-77
2022/03/17 01:49:58;;;;;;;;;;;7.50;91.50;;;;;;5078840;28;19924;-76
2022/03/17 01:52:25;;;;;;;;;;;7.60;91.60;;;;;;5072118;28;19928;-78
2022/03/17 01:54:53;;;;;;;;;;;7.60;91.60;;;;;;5077226;28;20355;-77
2022/03/17 01:57:21;;;;;;;;;;;7.70;91.60;;;;;;5078796;28;19929;-74
2022/03/17 01:59:49;;;;;;;;;;;7.70;91.40;;;;;;5075331;28;19925;-76
2022/03/17 02:02:15;;;;;;;;;;;7.70;91.30;;;;;;5067873;28;20412;-78
2022/03/17 02:04:42;;;;;;;;;;;7.70;91.40;;;;;;5078530;28;19924;-78
2022/03/17 02:07:11;;;;;;;;;;;7.80;91.40;;;;;;5063703;28;20462;-77
2022/03/17 02:09:38;;;;;;;;;;;7.80;91.20;;;;;;5068695;28;19924;-76
2022/03/17 02:14:50;;;;;;;;;;;7.80;91.30;;;;;;5058663;28;20395;-78
2022/03/17 02:17:17;;;;;;;;;;;7.80;91.20;;;;;;5073837;28;19924;-76
2022/03/17 02:19:45;;;;;;;;;;;7.80;91.30;;;;;;5070981;28;20284;-76
2022/03/17 02:22:13;;;;;;;;;;;7.80;91.50;;;;;;5070276;28;19925;-76
2022/03/17 02:27:46;;;;;;;;;;;7.90;91.50;;;;;;5069157;28;19977;-77
2022/03/17 02:30:14;;;;;;;;;;;8.10;92.50;;;;;;5057523;28;19925;-78
2022/03/17 02:32:41;;;;;;;;;;;8.40;92.60;;;;;;5059599;28;19925;-76
2022/03/17 02:35:10;;;;;;;;;;;8.40;92.40;;;;;;5068179;28;19928;-78
2022/03/17 02:37:37;;;;;;;;;;;8.40;92.30;;;;;;5062687;28;19956;-78
2022/03/17 02:40:05;;;;;;;;;;;8.50;92.30;;;;;;5074574;28;19956;-77
2022/03/17 02:42:32;;;;;;;;;;;8.50;92.20;;;;;;5074041;28;19946;-75
2022/03/17 02:45:03;;;;;;;;;;;8.60;92.10;;;;;;5066573;28;19924;-77
2022/03/17 02:47:30;;;;;;;;;;;8.50;92.10;;;;;;5073902;28;20232;-78
2022/03/17 02:49:57;;;;;;;;;;;8.60;92.00;;;;;;5075260;28;19925;-77
2022/03/17 02:52:24;;;;;;;;;;;8.70;92.20;;;;;;5052958;28;19932;-78
2022/03/17 02:54:51;;;;;;;;;;;8.70;91.90;;;;;;5053931;28;19990;-77
2022/03/17 02:57:19;;;;;;;;;;;8.50;91.60;;;;;;5062829;28;19979;-76
2022/03/17 02:59:46;;;;;;;;;;;8.50;91.70;;;;;;5068386;28;20343;-77
2022/03/17 03:02:14;;;;;;;;;;;8.40;91.70;;;;;;5061683;28;19957;-78
2022/03/17 03:04:41;;;;;;;;;;;8.40;91.80;;;;;;5072580;28;19924;-75
2022/03/17 03:07:08;;;;;;;;;;;8.40;91.90;;;;;;5067424;28;19925;-77
2022/03/17 03:09:35;;;;;;;;;;;8.40;91.90;;;;;;5077699;28;19928;-77
2022/03/17 03:12:01;;;;;;;;;;;8.50;92.00;;;;;;5072897;28;20404;-77
2022/03/17 03:14:29;;;;;;;;;;;8.50;92.00;;;;;;5075976;28;20328;-74
2022/03/17 03:16:55;;;;;;;;;;;8.50;92.00;;;;;;5070604;28;19955;-79
2022/03/17 03:19:22;;;;;;;;;;;8.50;92.00;;;;;;5058018;28;19925;-75
2022/03/17 03:21:49;;;;;;;;;;;8.50;92.00;;;;;;5076498;28;19955;-75
2022/03/17 03:24:16;;;;;;;;;;;8.50;92.00;;;;;;5076132;28;19924;-76
2022/03/17 03:26:43;;;;;;;;;;;8.50;92.00;;;;;;5070691;28;19925;-77
2022/03/17 03:29:21;;;;;;;;;;;8.60;91.80;;;;;;5072569;28;19936;-75
2022/03/17 03:31:52;;;;;;;;;;;8.60;91.80;;;;;;5071319;28;19924;-78
2022/03/17 03:34:19;;;;;;;;;;;8.60;91.80;;;;;;5074658;28;19930;-76
2022/03/17 03:39:33;;;;;;;;;;;8.70;92.00;;;;;;5071419;28;19928;-75
2022/03/17 03:42:00;;;;;;;;;;;8.70;91.90;;;;;;5079376;28;19978;-78
2022/03/17 03:44:27;;;;;;;;;;;8.70;91.80;;;;;;5065056;28;20328;-76
2022/03/17 03:46:53;;;;;;;;;;;8.80;91.80;;;;;;5055833;28;19975;-75
2022/03/17 03:49:21;;;;;;;;;;;8.80;91.80;;;;;;5060203;28;19928;-78
2022/03/17 03:51:48;;;;;;;;;;;8.80;91.70;;;;;;5070851;28;19925;-77
2022/03/17 03:54:17;;;;;;;;;;;8.90;91.60;;;;;;5074609;28;19978;-75
2022/03/17 03:56:48;;;;;;;;;;;8.90;91.60;;;;;;5064975;28;19925;-78
2022/03/17 03:59:22;;;;;;;;;;;8.90;91.60;;;;;;5055550;28;19976;-77
2022/03/17 04:01:51;;;;;;;;;;;8.90;91.40;;;;;;5061325;28;19932;-76
2022/03/17 04:04:19;;;;;;;;;;;8.90;91.40;;;;;;5069726;28;19925;-77
2022/03/17 04:06:47;;;;;;;;;;;8.90;91.40;;;;;;5053692;28;19956;-74
2022/03/17 04:09:14;;;;;;;;;;;8.90;91.30;;;;;;5076545;28;20346;-76
2022/03/17 04:11:41;;;;;;;;;;;8.90;91.30;;;;;;5068953;28;19925;-75
2022/03/17 04:14:08;;;;;;;;;;;8.90;91.30;;;;;;5056977;28;19924;-77
2022/03/17 04:16:35;;;;;;;;;;;8.90;91.20;;;;;;5061716;28;19940;-76
2022/03/17 04:19:02;;;;;;;;;;;8.90;91.10;;;;;;5079518;28;19928;-76
2022/03/17 04:21:30;;;;;;;;;;;8.90;91.30;;;;;;5077552;28;19925;-77
2022/03/17 04:23:57;;;;;;;;;;;8.80;91.80;;;;;;5082299;28;19968;-75
2022/03/17 04:26:24;;;;;;;;;;;8.80;91.80;;;;;;5078021;28;19963;-77
2022/03/17 04:28:50;;;;;;;;;;;8.80;91.60;;;;;;5062415;28;19925;-78
2022/03/17 04:31:18;;;;;;;;;;;8.80;91.40;;;;;;5066454;28;19924;-78
2022/03/17 04:33:45;;;;;;;;;;;8.80;91.40;;;;;;5067689;28;20359;-78
2022/03/17 04:36:12;;;;;;;;;;;8.80;91.70;;;;;;5065571;28;20320;-77
2022/03/17 04:38:39;;;;;;;;;;;8.80;91.20;;;;;;5082868;28;19963;-74
2022/03/17 04:41:06;;;;;;;;;;;8.80;91.40;;;;;;5067355;28;20347;-76
2022/03/17 04:43:33;;;;;;;;;;;8.80;91.30;;;;;;5063946;28;19932;-78
2022/03/17 04:46:00;;;;;;;;;;;8.80;91.10;;;;;;5066146;28;20556;-78
2022/03/17 04:48:26;;;;;;;;;;;8.80;91.00;;;;;;5075894;28;19959;-78
2022/03/17 04:50:53;;;;;;;;;;;8.80;91.10;;;;;;5078459;28;20108;-78
2022/03/17 04:53:32;;;;;;;;;;;8.80;91.00;;;;;;5070563;28;20392;-77
2022/03/17 04:56:01;;;;;;;;;;;8.80;91.00;;;;;;5074069;28;19925;-78
2022/03/17 04:58:28;;;;;;;;;;;8.80;91.00;;;;;;5079875;28;19925;-77
2022/03/17 05:00:56;;;;;;;;;;;8.80;91.30;;;;;;5068435;28;19960;-75
2022/03/17 05:03:23;;;;;;;;;;;8.80;91.10;;;;;;5064879;28;19939;-75
2022/03/17 05:05:50;;;;;;;;;;;8.80;91.20;;;;;;5068602;28;19936;-77
2022/03/17 05:08:17;;;;;;;;;;;8.80;91.10;;;;;;5063855;28;19955;-75
2022/03/17 05:10:44;;;;;;;;;;;8.80;91.00;;;;;;5072907;28;19964;-77
2022/03/17 05:13:11;;;;;;;;;;;8.80;91.00;;;;;;5073229;28;19936;-78
2022/03/17 05:15:39;;;;;;;;;;;8.80;91.00;;;;;;5065750;28;19943;-78
2022/03/17 05:18:06;;;;;;;;;;;8.80;90.90;;;;;;5074996;28;19924;-78
2022/03/17 05:20:35;;;;;;;;;;;8.80;91.00;;;;;;5072841;28;20311;-77
2022/03/17 05:23:13;;;;;;;;;;;8.80;91.00;;;;;;5066769;28;20396;-77
2022/03/17 05:25:41;;;;;;;;;;;8.80;91.20;;;;;;5081434;28;20355;-78
2022/03/17 05:28:08;;;;;;;;;;;8.80;91.10;;;;;;5070665;28;19925;-78
2022/03/17 05:30:36;;;;;;;;;;;8.80;91.30;;;;;;5065988;28;19928;-75
2022/03/17 05:33:03;;;;;;;;;;;8.80;91.30;;;;;;5073552;28;20467;-77
2022/03/17 05:35:30;;;;;;;;;;;8.80;91.30;;;;;;5055679;28;20316;-78
2022/03/17 05:37:57;;;;;;;;;;;8.80;91.50;;;;;;5075703;28;19928;-75
2022/03/17 05:40:25;;;;;;;;;;;8.70;92.10;;;;;;5078461;28;19928;-74
2022/03/17 05:42:54;;;;;;;;;;;8.70;92.00;;;;;;5090274;28;19928;-77
2022/03/17 05:45:21;;;;;;;;;;;8.80;92.00;;;;;;5078820;28;20568;-77
2022/03/17 05:47:51;;;;;;;;;;;8.70;91.80;;;;;;5066354;28;19932;-76
2022/03/17 05:50:21;;;;;;;;;;;8.70;91.90;;;;;;5062039;28;19951;-78
2022/03/17 05:52:48;;;;;;;;;;;8.70;91.70;;;;;;5067975;28;19960;-75
2022/03/17 05:55:16;;;;;;;;;;;8.80;91.60;;;;;;5063584;28;19925;-76
2022/03/17 05:57:45;;;;;;;;;;;8.80;91.80;;;;;;5081317;28;19924;-75
2022/03/17 06:00:13;;;;;;;;;;;8.80;92.10;;;;;;5079086;28;19928;-77
2022/03/17 06:02:40;;;;;;;;;;;8.70;92.10;;;;;;5070595;28;20304;-78
2022/03/17 06:05:07;;;;;;;;;;;8.70;92.30;;;;;;5061868;28;20388;-76
2022/03/17 06:07:38;;;;;;;;;;;8.70;92.30;;;;;;5072601;28;19974;-79
2022/03/17 06:10:05;;;;;;;;;;;8.70;92.10;;;;;;5064133;28;19970;-77
2022/03/17 06:12:32;;;;;;;;;;;8.80;92.00;;;;;;5074627;28;20392;-78
2022/03/17 06:14:59;;;;;;;;;;;8.70;91.80;;;;;;5072277;28;19932;-77
2022/03/17 06:17:49;;;;;;;;;;;8.80;91.70;;;;;;5068641;28;19929;-75
2022/03/17 06:20:17;;;;;;;;;;;8.80;91.70;;;;;;5073893;28;20367;-75
2022/03/17 06:22:50;;;;;;;;;;;8.80;91.70;;;;;;5074973;28;20376;-75
2022/03/17 06:25:18;;;;;;;;;;;8.70;92.10;;;;;;5075606;28;19932;-75
2022/03/17 06:27:46;;;;;;;;;;;8.70;91.90;;;;;;5075600;28;19932;-77
2022/03/17 06:30:15;;;;;;;;;;;8.70;91.80;;;;;;5055824;28;20347;-75
2022/03/17 06:32:41;;;;;;;;;;;8.70;91.80;;;;;;5065001;28;19928;-75
2022/03/17 06:35:09;;;;;;;;;;;8.70;91.90;;;;;;5065919;28;19960;-80
2022/03/17 06:37:37;;;;;;;;;;;8.70;91.90;;;;;;5065866;28;20296;-76
2022/03/17 06:40:06;;;;;;;;;;;8.80;91.80;;;;;;5063811;28;19931;-79
2022/03/17 06:42:33;;;;;;;;;;;8.70;91.80;;;;;;5068065;28;19947;-79
2022/03/17 06:45:00;;;;;;;;;;;8.80;92.00;;;;;;5065829;28;19981;-76
2022/03/17 06:47:27;;;;;;;;;;;8.80;92.00;;;;;;5054286;28;20373;-75
2022/03/17 06:49:54;;;;;;;;;;;8.80;91.90;;;;;;5053775;28;19932;-78
2022/03/17 06:52:22;;;;;;;;;;;8.80;91.90;;;;;;5074610;28;19960;-76
2022/03/17 06:54:49;;;;;;;;;;;8.80;91.80;;;;;;5066867;28;19956;-75
2022/03/17 06:57:17;;;;;;;;;;;8.90;92.00;;;;;;5071727;28;19968;-76
2022/03/17 06:59:44;;;;;;;;;;;8.90;92.20;;;;;;5071883;28;19956;-76
2022/03/17 07:02:11;;;;;;;;;;;8.90;92.00;;;;;;5071781;28;20226;-76
2022/03/17 07:04:39;;;;;;;;;;;9.00;91.80;;;;;;5072101;28;19924;-78
2022/03/17 07:07:06;;;;;;;;;;;9.00;92.00;;;;;;5071322;28;19925;-79
2022/03/17 07:09:33;;;;;;;;;;;9.00;91.90;;;;;;5070719;28;19959;-76
2022/03/17 07:12:00;;;;;;;;;;;9.00;91.80;;;;;;5067239;28;19975;-79
2022/03/17 07:14:27;;;;;;;;;;;9.10;91.70;;;;;;5051270;28;19978;-76
2022/03/17 07:16:54;;;;;;;;;;;9.10;91.90;;;;;;5049651;28;19956;-79
2022/03/17 07:19:20;;;;;;;;;;;9.10;92.00;;;;;;5072990;28;19928;-78
2022/03/17 07:21:47;;;;;;;;;;;9.20;92.10;;;;;;5069418;28;20111;-79
2022/03/17 07:24:15;;;;;;;;;;;9.20;92.10;;;;;;5071006;28;20449;-77
2022/03/17 07:26:41;;;;;;;;;;;9.20;92.00;;;;;;5071849;28;19946;-76
2022/03/17 07:29:08;;;;;;;;;;;9.20;92.10;;;;;;5070776;28;19951;-79
2022/03/17 07:31:35;;;;;;;;;;;9.30;92.10;;;;;;5070273;28;19959;-78
2022/03/17 07:34:02;;;;;;;;;;;9.20;92.00;;;;;;5070020;28;20277;-76
2022/03/17 07:36:29;;;;;;;;;;;9.30;92.10;;;;;;5068487;28;19928;-75
2022/03/17 07:38:56;;;;;;;;;;;9.30;92.00;;;;;;5059505;28;20460;-78
2022/03/17 07:41:23;;;;;;;;;;;9.30;92.00;;;;;;5081527;28;19956;-78
2022/03/17 07:43:50;;;;;;;;;;;9.30;92.10;;;;;;5051787;28;19972;-76
2022/03/17 07:46:18;;;;;;;;;;;9.30;92.10;;;;;;5070956;28;19926;-79
2022/03/17 07:48:45;;;;;;;;;;;9.30;92.20;;;;;;5071843;28;19934;-75
2022/03/17 07:51:12;;;;;;;;;;;9.30;92.20;;;;;;5074932;28;20035;-76
2022/03/17 07:53:39;;;;;;;;;;;9.30;92.10;;;;;;5071766;28;20446;-75
2022/03/17 07:56:06;;;;;;;;;;;9.40;92.10;;;;;;5067041;28;19924;-79
2022/03/17 07:58:33;;;;;;;;;;;9.40;91.90;;;;;;5062023;28;19925;-79
2022/03/17 08:01:01;;;;;;;;;;;9.40;92.10;;;;;;5074443;28;19982;-78
2022/03/17 08:03:28;;;;;;;;;;;9.40;92.00;;;;;;5075034;28;19951;-76
2022/03/17 08:05:55;;;;;;;;;;;9.40;91.90;;;;;;5074364;28;19933;-79
2022/03/17 08:08:21;;;;;;;;;;;9.50;92.00;;;;;;5074076;28;20410;-76
2022/03/17 08:10:48;;;;;;;;;;;9.40;91.90;;;;;;5074945;28;20358;-78
2022/03/17 08:13:15;;;;;;;;;;;9.50;91.80;;;;;;5074914;28;20453;-76
2022/03/17 08:15:42;;;;;;;;;;;9.50;91.90;;;;;;5072832;28;19924;-76
2022/03/17 08:18:09;;;;;;;;;;;9.50;91.90;;;;;;5075997;28;19928;-75
2022/03/17 08:20:37;;;;;;;;;;;9.50;91.90;;;;;;5072617;28;20327;-76
2022/03/17 08:23:04;;;;;;;;;;;9.50;91.80;;;;;;5066774;28;19974;-79
2022/03/17 08:25:31;;;;;;;;;;;9.50;91.70;;;;;;5070136;28;19924;-76
2022/03/17 08:27:58;;;;;;;;;;;9.50;91.70;;;;;;5072440;28;19975;-79
2022/03/17 08:30:25;;;;;;;;;;;9.50;91.80;;;;;;5055086;28;20289;-78
2022/03/17 08:32:51;;;;;;;;;;;9.50;91.80;;;;;;5072241;28;19928;-79
2022/03/17 08:35:18;;;;;;;;;;;9.50;91.70;;;;;;5069814;28;19967;-76
2022/03/17 08:37:45;;;;;;;;;;;9.50;91.70;;;;;;5052829;28;19929;-79
2022/03/17 08:40:13;;;;;;;;;;;9.60;91.90;;;;;;5072060;28;19971;-78
2022/03/17 08:42:41;;;;;;;;;;;9.60;91.80;;;;;;5061273;28;19994;-79
2022/03/17 08:50:40;;;;;;;;;;;9.50;91.90;;;;;;5073335;28;20396;-78
2022/03/17 08:53:07;;;;;;;;;;;9.50;92.20;;;;;;5062176;28;19925;-76
2022/03/17 08:55:34;;;;;;;;;;;9.50;92.20;;;;;;5069716;28;19974;-79
2022/03/17 08:58:01;;;;;;;;;;;9.50;92.20;;;;;;5073369;28;19982;-76
2022/03/17 09:00:30;;;;;;;;;;;9.50;92.20;;;;;;5071768;28;19962;-78
2022/03/17 09:03:01;;;;;;;;;;;9.50;92.40;;;;;;5071633;28;20022;-79
2022/03/17 09:05:30;;;;;;;;;;;9.50;92.50;;;;;;5072543;28;19954;-79
2022/03/17 09:07:57;;;;;;;;;;;9.50;92.60;;;;;;5071688;28;20003;-78
2022/03/17 09:10:24;;;;;;;;;;;9.40;92.60;;;;;;5075958;28;19971;-78
2022/03/17 09:12:57;;;;;;;;;;;9.40;92.70;;;;;;5059496;28;19963;-78
2022/03/17 09:15:25;;;;;;;;;;;9.40;92.80;;;;;;5074378;28;20407;-76
2022/03/17 09:17:52;;;;;;;;;;;9.50;92.80;;;;;;5058620;28;19978;-79
2022/03/17 09:20:19;;;;;;;;;;;9.50;92.80;;;;;;5062387;28;19929;-76
2022/03/17 09:22:47;;;;;;;;;;;9.40;92.80;;;;;;5066000;28;20392;-79
2022/03/17 09:25:13;;;;;;;;;;;9.50;93.10;;;;;;5064019;28;19928;-79
2022/03/17 09:27:43;;;;;;;;;;;9.50;93.00;;;;;;5072005;28;19932;-76
2022/03/17 09:30:10;;;;;;;;;;;9.50;93.00;;;;;;5073714;28;19967;-79
2022/03/17 09:32:37;;;;;;;;;;;9.50;93.00;;;;;;5056324;28;19929;-76
2022/03/17 09:35:04;;;;;;;;;;;9.50;93.20;;;;;;5052060;28;20002;-76
2022/03/17 09:37:31;;;;;;;;;;;9.50;93.40;;;;;;5052778;28;19928;-76
2022/03/17 09:39:57;;;;;;;;;;;9.50;93.40;;;;;;5064322;28;19994;-76
2022/03/17 09:42:25;;;;;;;;;;;9.50;93.30;;;;;;5063788;28;19950;-77
2022/03/17 09:44:55;;;;;;;;;;;9.50;93.30;;;;;;5066227;28;19967;-79
2022/03/17 09:47:23;;;;;;;;;;;9.50;93.40;;;;;;5060501;28;19925;-79
2022/03/17 09:49:54;;;;;;;;;;;9.50;93.60;;;;;;5072136;28;20338;-76
2022/03/17 09:52:21;;;;;;;;;;;9.50;93.70;;;;;;5065990;28;20357;-76
2022/03/17 09:54:49;;;;;;;;;;;9.50;93.80;;;;;;5065797;28;19928;-79
2022/03/17 09:57:16;;;;;;;;;;;9.60;93.60;;;;;;5058530;28;19928;-79
2022/03/17 09:59:44;;;;;;;;;;;9.60;93.70;;;;;;5070565;28;20410;-76
2022/03/17 10:02:13;;;;;;;;;;;9.60;93.70;;;;;;5054661;28;19978;-79
2022/03/17 10:04:43;;;;;;;;;;;9.60;93.90;;;;;;5060716;28;19925;-79
2022/03/17 10:07:10;;;;;;;;;;;9.70;93.90;;;;;;5070693;28;19928;-79
2022/03/17 10:09:37;;;;;;;;;;;9.70;93.90;;;;;;5072243;28;19924;-79
2022/03/17 10:12:05;;;;;;;;;;;9.70;93.90;;;;;;5072348;28;19982;-77
2022/03/17 10:14:42;;;;;;;;;;;9.80;94.00;;;;;;5053183;28;19929;-78
2022/03/17 10:17:29;;;;;;;;;;;9.80;93.90;;;;;;5061897;28;19931;-76
2022/03/17 10:20:15;;;;;;;;;;;9.80;93.60;;;;;;5059500;28;20016;-76
2022/03/17 10:22:49;;;;;;;;;;;9.80;93.60;;;;;;5069061;28;19978;-75
2022/03/17 10:25:20;;;;;;;;;;;9.90;93.90;;;;;;5062156;28;19928;-79
2022/03/17 10:27:49;;;;;;;;;;;10.00;93.70;;;;;;5074880;28;19951;-75
2022/03/17 10:30:34;;;;;;;;;;;10.00;93.50;;;;;;5070941;28;19929;-76
2022/03/17 10:33:03;;;;;;;;;;;10.10;93.40;;;;;;5071197;28;19924;-76
2022/03/17 10:35:34;;;;;;;;;;;10.10;92.90;;;;;;5067254;28;19979;-79
2022/03/17 10:38:12;;;;;;;;;;;10.10;93.10;;;;;;5064703;28;19929;-79
2022/03/17 10:40:40;;;;;;;;;;;10.10;92.60;;;;;;5062928;28;19967;-76
2022/03/17 10:43:15;;;;;;;;;;;10.20;92.40;;;;;;5066971;28;19924;-76
2022/03/17 10:45:42;;;;;;;;;;;10.20;92.20;;;;;;5057537;28;19929;-78
2022/03/17 10:48:09;;;;;;;;;;;10.30;92.10;;;;;;5060236;28;19928;-80
2022/03/17 10:50:40;;;;;;;;;;;10.40;91.90;;;;;;5070237;28;19971;-78
2022/03/17 10:53:07;;;;;;;;;;;10.50;91.80;;;;;;5073679;28;19946;-75
2022/03/17 10:55:35;;;;;;;;;;;10.60;91.60;;;;;;5053656;28;19968;-75
2022/03/17 10:58:14;;;;;;;;;;;10.60;91.40;;;;;;5063869;28;19932;-79
2022/03/17 11:00:56;;;;;;;;;;;10.70;90.80;;;;;;5070727;28;19971;-79
2022/03/17 11:03:24;;;;;;;;;;;10.90;90.80;;;;;;5067960;28;19928;-76
2022/03/17 11:05:51;;;;;;;;;;;11.00;90.70;;;;;;5070873;28;19925;-76
2022/03/17 11:08:21;;;;;;;;;;;11.10;88.90;;;;;;5073061;28;19924;-79
2022/03/17 11:10:49;;;;;;;;;;;11.20;88.20;;;;;;5055794;28;19931;-79
2022/03/17 11:13:16;;;;;;;;;;;11.20;88.70;;;;;;5070089;28;19947;-76
2022/03/17 11:15:45;;;;;;;;;;;11.30;87.70;;;;;;5066461;28;20304;-76
2022/03/17 11:18:18;;;;;;;;;;;11.30;86.80;;;;;;5057879;28;20449;-80
2022/03/17 11:20:45;;;;;;;;;;;11.40;87.00;;;;;;5069398;28;19928;-77
2022/03/17 11:23:19;;;;;;;;;;;11.60;86.40;;;;;;5069717;28;19924;-76
2022/03/17 11:25:51;;;;;;;;;;;11.70;85.30;;;;;;5086510;28;19959;-79
2022/03/17 11:28:19;;;;;;;;;;;11.80;85.60;;;;;;5057030;28;19924;-79
2022/03/17 11:30:47;;;;;;;;;;;11.90;85.20;;;;;;5070251;28;19976;-76
2022/03/17 11:33:20;;;;;;;;;;;12.00;84.40;;;;;;5057747;28;20400;-79
2022/03/17 11:36:01;;;;;;;;;;;12.20;83.70;;;;;;5071617;28;20400;-76
2022/03/17 11:38:32;;;;;;;;;;;12.20;82.80;;;;;;5056497;28;19928;-76
2022/03/17 11:41:08;;;;;;;;;;;12.10;82.50;;;;;;5070573;28;20027;-79
2022/03/17 11:43:42;;;;;;;;;;;12.10;82.70;;;;;;5057128;28;19928;-79
2022/03/17 11:46:23;;;;;;;;;;;12.20;83.10;;;;;;5062018;28;19978;-79
2022/03/17 11:48:51;;;;;;;;;;;12.10;82.10;;;;;;5050819;28;19986;-80
2022/03/17 11:51:18;;;;;;;;;;;12.10;81.50;;;;;;5064536;28;19924;-79
2022/03/17 11:53:51;;;;;;;;;;;12.00;81.40;;;;;;5069994;28;20353;-80
2022/03/17 11:56:37;;;;;;;;;;;12.10;81.40;;;;;;5070294;28;20011;-79
2022/03/17 11:59:07;;;;;;;;;;;12.00;81.80;;;;;;5059524;28;19925;-80
2022/03/17 12:01:39;;;;;;;;;;;12.00;82.20;;;;;;5057229;28;19944;-79
2022/03/17 12:04:06;;;;;;;;;;;12.00;81.00;;;;;;5063143;28;19925;-78
2022/03/17 12:06:34;;;;;;;;;;;12.00;81.40;;;;;;5063329;28;19932;-77
2022/03/17 12:09:04;;;;;;;;;;;12.00;81.30;;;;;;5068275;28;19932;-76
2022/03/17 12:11:32;;;;;;;;;;;11.90;80.20;;;;;;5073075;28;19925;-77
2022/03/17 12:14:14;;;;;;;;;;;11.90;80.50;;;;;;5064468;28;19925;-75
2022/03/17 12:16:41;;;;;;;;;;;11.90;80.40;;;;;;5064834;28;19998;-76
2022/03/17 12:19:08;;;;;;;;;;;12.00;80.10;;;;;;5070113;28;19925;-76
2022/03/17 12:21:54;;;;;;;;;;;12.00;79.40;;;;;;5069977;28;19932;-77
2022/03/17 12:24:33;;;;;;;;;;;12.00;79.10;;;;;;5068787;28;19928;-76
2022/03/17 12:27:03;;;;;;;;;;;12.00;79.40;;;;;;5070256;28;19932;-76
2022/03/17 12:29:31;;;;;;;;;;;12.00;78.70;;;;;;5067048;28;19929;-76
2022/03/17 12:32:05;;;;;;;;;;;11.90;79.10;;;;;;5065199;28;20354;-76
2022/03/17 12:34:32;;;;;;;;;;;12.00;79.00;;;;;;5074109;28;19925;-75
2022/03/17 12:37:01;;;;;;;;;;;11.90;79.00;;;;;;5062786;28;19970;-76
2022/03/17 12:39:36;;;;;;;;;;;11.90;78.80;;;;;;5073781;28;19925;-77
2022/03/17 12:42:12;;;;;;;;;;;11.90;78.50;;;;;;5072858;28;19932;-76
2022/03/17 12:44:50;;;;;;;;;;;11.90;78.30;;;;;;5068207;28;19975;-76
2022/03/17 12:47:18;;;;;;;;;;;11.90;78.50;;;;;;5062881;28;20377;-78
2022/03/17 12:49:45;;;;;;;;;;;11.90;78.20;;;;;;5074398;28;19928;-76
2022/03/17 12:52:18;;;;;;;;;;;11.90;77.60;;;;;;5073272;28;19924;-76
2022/03/17 12:54:45;;;;;;;;;;;11.90;77.90;;;;;;5058625;28;20490;-79
2022/03/17 12:57:12;;;;;;;;;;;11.90;77.50;;;;;;5067007;28;20335;-76
2022/03/17 12:59:39;;;;;;;;;;;11.90;77.50;;;;;;5052839;28;19975;-76
2022/03/17 13:02:07;;;;;;;;;;;11.90;78.50;;;;;;5071581;28;19974;-76
2022/03/17 13:04:39;;;;;;;;;;;11.90;77.40;;;;;;5070032;28;20479;-79
2022/03/17 13:07:06;;;;;;;;;;;11.90;76.50;;;;;;5068369;28;19932;-76
2022/03/17 13:09:33;;;;;;;;;;;11.90;76.60;;;;;;5065965;28;20393;-77
2022/03/17 13:14:50;;;;;;;;;;;11.90;77.30;;;;;;5067734;28;20325;-79
2022/03/17 13:17:28;;;;;;;;;;;11.90;77.20;;;;;;5066092;28;19983;-79
2022/03/17 13:19:55;;;;;;;;;;;11.90;76.60;;;;;;5072076;28;19959;-79
2022/03/17 13:22:24;;;;;;;;;;;11.90;76.00;;;;;;5072806;28;19924;-76
2022/03/17 13:25:00;;;;;;;;;;;11.90;76.20;;;;;;5058619;28;20423;-76
2022/03/17 13:27:27;;;;;;;;;;;11.90;76.00;;;;;;5072611;28;19925;-76
2022/03/17 13:29:54;;;;;;;;;;;11.90;76.30;;;;;;5059705;28;20662;-76
2022/03/17 13:32:23;;;;;;;;;;;11.90;75.50;;;;;;5060779;28;19947;-79
2022/03/17 13:34:57;;;;;;;;;;;11.90;75.40;;;;;;5074420;28;19998;-79
2022/03/17 13:37:32;;;;;;;;;;;11.90;75.50;;;;;;5071518;28;19933;-76
2022/03/17 13:40:03;;;;;;;;;;;12.00;75.30;;;;;;5058884;28;19975;-76
2022/03/17 13:42:30;;;;;;;;;;;12.00;74.80;;;;;;5066814;28;19928;-76
2022/03/17 13:45:00;;;;;;;;;;;12.00;74.50;;;;;;5064314;28;19924;-79
2022/03/17 13:47:58;;;;;;;;;;;12.00;74.50;;;;;;5071874;28;19928;-76
2022/03/17 13:50:25;;;;;;;;;;;12.00;74.20;;;;;;5070639;28;19928;-79
2022/03/17 13:53:03;;;;;;;;;;;12.00;74.20;;;;;;5072458;28;19924;-79
2022/03/17 13:55:34;;;;;;;;;;;12.00;73.70;;;;;;5054286;28;19933;-76
2022/03/17 13:58:11;;;;;;;;;;;12.00;72.90;;;;;;5053713;28;20446;-79
2022/03/17 14:00:38;;;;;;;;;;;12.00;72.80;;;;;;5066091;28;20016;-76
2022/03/17 14:03:16;;;;;;;;;;;11.90;73.10;;;;;;5068130;28;19936;-79
2022/03/17 14:06:02;;;;;;;;;;;12.00;73.70;;;;;;5068942;28;19928;-79
2022/03/17 14:08:30;;;;;;;;;;;12.00;72.80;;;;;;5075650;28;19925;-76
2022/03/17 14:10:57;;;;;;;;;;;12.00;72.70;;;;;;5060746;28;19974;-79
2022/03/17 14:13:24;;;;;;;;;;;12.00;72.80;;;;;;5072260;28;19924;-76
2022/03/17 14:15:52;;;;;;;;;;;12.00;72.00;;;;;;5072028;28;20385;-76
2022/03/17 14:18:19;;;;;;;;;;;12.00;71.80;;;;;;5062300;28;19924;-79
2022/03/17 14:20:47;;;;;;;;;;;12.00;72.60;;;;;;5055649;28;19992;-80
2022/03/17 14:25:59;;;;;;;;;;;12.00;73.90;;;;;;5058119;28;20006;-79
2022/03/17 14:28:25;;;;;;;;;;;12.00;73.90;;;;;;5061401;28;20037;-79
2022/03/17 14:30:52;;;;;;;;;;;12.00;73.80;;;;;;5062079;28;20016;-79
2022/03/17 14:33:19;;;;;;;;;;;12.00;74.30;;;;;;5058621;28;19933;-79
2022/03/17 14:35:46;;;;;;;;;;;12.00;73.90;;;;;;5057067;28;19925;-76
2022/03/17 14:38:13;;;;;;;;;;;12.00;73.50;;;;;;5053152;28;19956;-76
2022/03/17 14:40:40;;;;;;;;;;;12.00;73.30;;;;;;5068516;28;20696;-79
2022/03/17 14:43:07;;;;;;;;;;;12.00;73.10;;;;;;5061022;28;19925;-76
2022/03/17 14:45:34;;;;;;;;;;;12.00;72.70;;;;;;5058447;28;19990;-76
2022/03/17 14:48:00;;;;;;;;;;;12.00;73.00;;;;;;5053088;28;19955;-76
2022/03/17 14:50:27;;;;;;;;;;;12.00;72.70;;;;;;5057649;28;20454;-79
2022/03/17 14:52:54;;;;;;;;;;;11.90;72.40;;;;;;5056861;28;19925;-79
2022/03/17 14:55:21;;;;;;;;;;;12.00;72.40;;;;;;5067891;28;20396;-75